sensor_id;sensor_type;location;lat;lon;timestamp;temperature;humidity
2825;DHT22;1420;51.324;12.344;2024-01-06T00:01:05;3.60;99.90
2825;DHT22;1420;51.324;12.344;2024-01-06T00:03:32;3.60;99.90
2825;DHT22;1420;51.324;12.344;2024-01-06T00:05:59;3.60;99.90
2825;DHT22;1420;51.324;12.344;2024-01-06T00:08:27;3.70;99.90
2825;DHT22;1420;51.324;12.344;2024-01-06T00:10:54;3.60;99.90
2825;DHT22;1420;51.324;12.344;2024-01-06T00:13:22;3.70;99.90
2825;DHT22;1420;51.324;12.344;2024-01-06T00:15:49;3.70;99.90
2825;DHT22;1420;51.324;12.344;2024-01-06T00:18:16;3.70;99.90
2825;DHT22;1420;51.324;12.344;2024-01-06T00:20:43;3.60;99.90
2825;DHT22;1420;51.324;12.344;2024-01-06T00:23:10;3.50;99.90
2825;DHT22;1420;51.324;12.344;2024-01-06T00:25:38;3.50;99.90
2825;DHT22;1420;51.324;12.344;2024-01-06T00:28:05;3.50;99.90
2825;DHT22;1420;51.324;12.344;2024-01-06T00:30:32;3.50;99.90
2825;DHT22;1420;51.324;12.344;2024-01-06T00:32:59;3.40;99.90
2825;DHT22;1420;51.324;12.344;2024-01-06T00:35:26;3.40;99.90
2825;DHT22;1420;51.324;12.344;2024-01-06T00:37:54;3.40;99.90
2825;DHT22;1420;51.324;12.344;2024-01-06T00:40:21;3.40;99.90
2825;DHT22;1420;51.324;12.344;2024-01-06T00:42:48;3.40;99.90
2825;DHT22;1420;51.324;12.344;2024-01-06T00:45:15;3.40;99.90
2825;DHT22;1420;51.324;12.344;2024-01-06T00:47:42;3.40;99.90
2825;DHT22;1420;51.324;12.344;2024-01-06T00:50:10;3.40;99.90
2825;DHT22;1420;51.324;12.344;2024-01-06T00:52:38;3.50;99.90
2825;DHT22;1420;51.324;12.344;2024-01-06T00:55:07;3.50;99.90
2825;DHT22;1420;51.324;12.344;2024-01-06T00:57:34;3.40;99.90
2825;DHT22;1420;51.324;12.344;2024-01-06T01:00:03;3.40;99.90
2825;DHT22;1420;51.324;12.344;2024-01-06T01:02:29;3.30;99.90
2825;DHT22;1420;51.324;12.344;2024-01-06T01:04:56;3.30;99.90
2825;DHT22;1420;51.324;12.344;2024-01-06T01:07:24;3.20;99.90
2825;DHT22;1420;51.324;12.344;2024-01-06T01:09:51;3.20;99.90
2825;DHT22;1420;51.324;12.344;2024-01-06T01:12:18;3.20;99.90
2825;DHT22;1420;51.324;12.344;2024-01-06T01:14:45;3.10;99.90
2825;DHT22;1420;51.324;12.344;2024-01-06T01:17:12;3.10;99.90
2825;DHT22;1420;51.324;12.344;2024-01-06T01:19:40;3.10;99.90
2825;DHT22;1420;51.324;12.344;2024-01-06T01:22:07;3.10;99.90
2825;DHT22;1420;51.324;12.344;2024-01-06T01:24:34;3.10;99.90
2825;DHT22;1420;51.324;12.344;2024-01-06T01:27:01;3.10;99.90
2825;DHT22;1420;51.324;12.344;2024-01-06T01:29:29;3.10;99.90
2825;DHT22;1420;51.324;12.344;2024-01-06T01:31:56;3.10;99.90
2825;DHT22;1420;51.324;12.344;2024-01-06T01:34:23;3.00;99.90
2825;DHT22;1420;51.324;12.344;2024-01-06T01:36:50;3.00;99.90
2825;DHT22;1420;51.324;12.344;2024-01-06T01:39:17;2.90;99.90
2825;DHT22;1420;51.324;12.344;2024-01-06T01:41:45;2.90;99.90
2825;DHT22;1420;51.324;12.344;2024-01-06T01:44:12;2.90;99.90
2825;DHT22;1420;51.324;12.344;2024-01-06T01:46:39;2.90;99.90
2825;DHT22;1420;51.324;12.344;2024-01-06T01:49:06;2.90;99.90
2825;DHT22;1420;51.324;12.344;2024-01-06T01:51:34;2.90;99.90
2825;DHT22;1420;51.324;12.344;2024-01-06T01:54:01;2.90;99.90
2825;DHT22;1420;51.324;12.344;2024-01-06T01:56:29;2.90;99.90
2825;DHT22;1420;51.324;12.344;2024-01-06T01:58:56;2.80;99.90
2825;DHT22;1420;51.324;12.344;2024-01-06T02:01:23;2.70;99.90
2825;DHT22;1420;51.324;12.344;2024-01-06T02:03:50;2.70;99.90
2825;DHT22;1420;51.324;12.344;2024-01-06T02:06:17;2.50;99.90
2825;DHT22;1420;51.324;12.344;2024-01-06T02:08:44;2.60;99.90
2825;DHT22;1420;51.324;12.344;2024-01-06T02:11:12;2.60;99.90
2825;DHT22;1420;51.324;12.344;2024-01-06T02:13:39;2.60;99.90
2825;DHT22;1420;51.324;12.344;2024-01-06T02:16:07;2.70;99.90
2825;DHT22;1420;51.324;12.344;2024-01-06T02:18:34;2.60;99.90
2825;DHT22;1420;51.324;12.344;2024-01-06T02:21:02;2.70;99.90
2825;DHT22;1420;51.324;12.344;2024-01-06T02:23:29;2.70;99.90
2825;DHT22;1420;51.324;12.344;2024-01-06T02:25:56;2.80;99.90
2825;DHT22;1420;51.324;12.344;2024-01-06T02:28:24;2.60;99.90
2825;DHT22;1420;51.324;12.344;2024-01-06T02:30:52;2.60;99.90
2825;DHT22;1420;51.324;12.344;2024-01-06T02:33:19;2.60;99.90
2825;DHT22;1420;51.324;12.344;2024-01-06T02:35:46;2.70;99.90
2825;DHT22;1420;51.324;12.344;2024-01-06T02:38:13;2.60;99.90
2825;DHT22;1420;51.324;12.344;2024-01-06T02:40:40;2.60;99.90
2825;DHT22;1420;51.324;12.344;2024-01-06T02:43:08;2.60;99.90
2825;DHT22;1420;51.324;12.344;2024-01-06T02:45:35;2.60;99.90
2825;DHT22;1420;51.324;12.344;2024-01-06T02:48:02;2.60;99.90
2825;DHT22;1420;51.324;12.344;2024-01-06T02:50:29;2.60;99.90
2825;DHT22;1420;51.324;12.344;2024-01-06T02:52:57;2.50;99.90
2825;DHT22;1420;51.324;12.344;2024-01-06T02:55:24;2.50;99.90
2825;DHT22;1420;51.324;12.344;2024-01-06T02:57:52;2.60;99.90
2825;DHT22;1420;51.324;12.344;2024-01-06T03:00:19;2.60;99.90
2825;DHT22;1420;51.324;12.344;2024-01-06T03:02:46;2.40;99.90
2825;DHT22;1420;51.324;12.344;2024-01-06T03:05:13;2.40;99.90
2825;DHT22;1420;51.324;12.344;2024-01-06T03:07:40;2.40;99.90
2825;DHT22;1420;51.324;12.344;2024-01-06T03:10:09;2.40;99.90
2825;DHT22;1420;51.324;12.344;2024-01-06T03:12:36;2.30;99.90
2825;DHT22;1420;51.324;12.344;2024-01-06T03:15:03;2.40;99.90
2825;DHT22;1420;51.324;12.344;2024-01-06T03:17:31;2.40;99.90
2825;DHT22;1420;51.324;12.344;2024-01-06T03:19:58;2.30;99.90
2825;DHT22;1420;51.324;12.344;2024-01-06T03:22:25;2.30;99.90
2825;DHT22;1420;51.324;12.344;2024-01-06T03:24:52;2.30;99.90
2825;DHT22;1420;51.324;12.344;2024-01-06T03:27:19;2.40;99.90
2825;DHT22;1420;51.324;12.344;2024-01-06T03:29:47;2.30;99.90
2825;DHT22;1420;51.324;12.344;2024-01-06T03:32:14;2.30;99.90
2825;DHT22;1420;51.324;12.344;2024-01-06T03:34:41;2.30;99.90
2825;DHT22;1420;51.324;12.344;2024-01-06T03:37:08;2.20;99.90
2825;DHT22;1420;51.324;12.344;2024-01-06T03:39:35;2.20;99.90
2825;DHT22;1420;51.324;12.344;2024-01-06T03:42:03;2.20;99.90
2825;DHT22;1420;51.324;12.344;2024-01-06T03:44:30;2.30;99.90
2825;DHT22;1420;51.324;12.344;2024-01-06T03:46:57;2.20;99.90
2825;DHT22;1420;51.324;12.344;2024-01-06T03:49:24;2.20;99.90
2825;DHT22;1420;51.324;12.344;2024-01-06T03:51:51;2.20;99.90
2825;DHT22;1420;51.324;12.344;2024-01-06T03:54:19;2.20;99.90
2825;DHT22;1420;51.324;12.344;2024-01-06T03:56:47;2.10;99.90
2825;DHT22;1420;51.324;12.344;2024-01-06T03:59:14;2.10;99.90
2825;DHT22;1420;51.324;12.344;2024-01-06T04:01:41;2.10;99.90
2825;DHT22;1420;51.324;12.344;2024-01-06T04:04:08;2.10;99.90
2825;DHT22;1420;51.324;12.344;2024-01-06T04:06:35;2.10;99.90
2825;DHT22;1420;51.324;12.344;2024-01-06T04:09:02;2.10;99.90
2825;DHT22;1420;51.324;12.344;2024-01-06T04:11:30;2.00;99.90
2825;DHT22;1420;51.324;12.344;2024-01-06T04:13:57;2.00;99.90
2825;DHT22;1420;51.324;12.344;2024-01-06T04:16:25;2.00;99.90
2825;DHT22;1420;51.324;12.344;2024-01-06T04:18:51;2.10;99.90
2825;DHT22;1420;51.324;12.344;2024-01-06T04:21:18;2.00;99.90
2825;DHT22;1420;51.324;12.344;2024-01-06T04:23:46;2.00;99.90
2825;DHT22;1420;51.324;12.344;2024-01-06T04:26:13;2.10;99.90
2825;DHT22;1420;51.324;12.344;2024-01-06T04:28:40;2.00;99.90
2825;DHT22;1420;51.324;12.344;2024-01-06T04:31:07;2.10;99.90
2825;DHT22;1420;51.324;12.344;2024-01-06T04:33:34;2.00;99.90
2825;DHT22;1420;51.324;12.344;2024-01-06T04:36:02;2.10;99.90
2825;DHT22;1420;51.324;12.344;2024-01-06T04:38:29;2.00;99.90
2825;DHT22;1420;51.324;12.344;2024-01-06T04:40:56;2.00;99.90
2825;DHT22;1420;51.324;12.344;2024-01-06T04:43:23;1.90;99.90
2825;DHT22;1420;51.324;12.344;2024-01-06T04:45:51;1.90;99.90
2825;DHT22;1420;51.324;12.344;2024-01-06T04:48:18;1.90;99.90
2825;DHT22;1420;51.324;12.344;2024-01-06T04:50:45;1.80;99.90
2825;DHT22;1420;51.324;12.344;2024-01-06T04:53:12;1.70;99.90
2825;DHT22;1420;51.324;12.344;2024-01-06T04:55:39;1.70;99.90
2825;DHT22;1420;51.324;12.344;2024-01-06T04:58:07;1.70;99.90
2825;DHT22;1420;51.324;12.344;2024-01-06T05:00:34;1.80;99.90
2825;DHT22;1420;51.324;12.344;2024-01-06T05:03:01;1.70;99.90
2825;DHT22;1420;51.324;12.344;2024-01-06T05:05:28;1.80;99.90
2825;DHT22;1420;51.324;12.344;2024-01-06T05:07:56;1.80;99.90
2825;DHT22;1420;51.324;12.344;2024-01-06T05:10:24;1.80;99.90
2825;DHT22;1420;51.324;12.344;2024-01-06T05:12:51;1.70;99.90
2825;DHT22;1420;51.324;12.344;2024-01-06T05:15:19;1.70;99.90
2825;DHT22;1420;51.324;12.344;2024-01-06T05:17:46;1.60;99.90
2825;DHT22;1420;51.324;12.344;2024-01-06T05:20:13;1.60;99.90
2825;DHT22;1420;51.324;12.344;2024-01-06T05:22:40;1.50;99.90
2825;DHT22;1420;51.324;12.344;2024-01-06T05:25:08;1.40;99.90
2825;DHT22;1420;51.324;12.344;2024-01-06T05:27:35;1.40;99.90
2825;DHT22;1420;51.324;12.344;2024-01-06T05:30:02;1.50;99.90
2825;DHT22;1420;51.324;12.344;2024-01-06T05:32:29;1.50;99.90
2825;DHT22;1420;51.324;12.344;2024-01-06T05:34:57;1.60;99.90
2825;DHT22;1420;51.324;12.344;2024-01-06T05:37:24;1.60;99.90
2825;DHT22;1420;51.324;12.344;2024-01-06T05:39:51;1.60;99.90
2825;DHT22;1420;51.324;12.344;2024-01-06T05:42:18;1.50;99.90
2825;DHT22;1420;51.324;12.344;2024-01-06T05:44:45;1.50;99.90
2825;DHT22;1420;51.324;12.344;2024-01-06T05:47:12;1.50;99.90
2825;DHT22;1420;51.324;12.344;2024-01-06T05:49:42;1.60;99.90
2825;DHT22;1420;51.324;12.344;2024-01-06T05:52:09;1.60;99.90
2825;DHT22;1420;51.324;12.344;2024-01-06T05:54:36;1.50;99.90
2825;DHT22;1420;51.324;12.344;2024-01-06T05:57:03;1.50;99.90
2825;DHT22;1420;51.324;12.344;2024-01-06T05:59:32;1.60;99.90
2825;DHT22;1420;51.324;12.344;2024-01-06T06:01:59;1.60;99.90
2825;DHT22;1420;51.324;12.344;2024-01-06T06:04:26;1.70;99.90
2825;DHT22;1420;51.324;12.344;2024-01-06T06:06:54;1.70;99.90
2825;DHT22;1420;51.324;12.344;2024-01-06T06:09:21;1.70;99.90
2825;DHT22;1420;51.324;12.344;2024-01-06T06:11:48;1.60;99.90
2825;DHT22;1420;51.324;12.344;2024-01-06T06:14:15;1.60;99.90
2825;DHT22;1420;51.324;12.344;2024-01-06T06:16:42;1.60;99.90
2825;DHT22;1420;51.324;12.344;2024-01-06T06:19:10;1.60;99.90
2825;DHT22;1420;51.324;12.344;2024-01-06T06:21:37;1.60;99.90
2825;DHT22;1420;51.324;12.344;2024-01-06T06:24:04;1.70;99.90
2825;DHT22;1420;51.324;12.344;2024-01-06T06:26:32;1.70;99.90
2825;DHT22;1420;51.324;12.344;2024-01-06T06:28:59;1.60;99.90
2825;DHT22;1420;51.324;12.344;2024-01-06T06:31:26;1.60;99.90
2825;DHT22;1420;51.324;12.344;2024-01-06T06:33:53;1.60;99.90
2825;DHT22;1420;51.324;12.344;2024-01-06T06:36:21;1.60;99.90
2825;DHT22;1420;51.324;12.344;2024-01-06T06:38:48;1.60;99.90
2825;DHT22;1420;51.324;12.344;2024-01-06T06:41:15;1.70;99.90
2825;DHT22;1420;51.324;12.344;2024-01-06T06:43:43;1.60;99.90
2825;DHT22;1420;51.324;12.344;2024-01-06T06:46:10;1.70;99.90
2825;DHT22;1420;51.324;12.344;2024-01-06T06:48:37;1.70;99.90
2825;DHT22;1420;51.324;12.344;2024-01-06T06:51:04;1.60;99.90
2825;DHT22;1420;51.324;12.344;2024-01-06T06:53:31;1.70;99.90
2825;DHT22;1420;51.324;12.344;2024-01-06T06:55:59;1.60;99.90
2825;DHT22;1420;51.324;12.344;2024-01-06T06:58:26;1.70;99.90
2825;DHT22;1420;51.324;12.344;2024-01-06T07:00:53;1.60;99.90
2825;DHT22;1420;51.324;12.344;2024-01-06T07:03:20;1.70;99.90
2825;DHT22;1420;51.324;12.344;2024-01-06T07:05:48;1.70;99.90
2825;DHT22;1420;51.324;12.344;2024-01-06T07:08:16;2.00;99.90
2825;DHT22;1420;51.324;12.344;2024-01-06T07:10:43;2.00;99.90
2825;DHT22;1420;51.324;12.344;2024-01-06T07:13:11;2.30;99.90
2825;DHT22;1420;51.324;12.344;2024-01-06T07:15:38;2.60;99.90
2825;DHT22;1420;51.324;12.344;2024-01-06T07:18:05;2.50;99.90
2825;DHT22;1420;51.324;12.344;2024-01-06T07:20:33;2.80;99.90
2825;DHT22;1420;51.324;12.344;2024-01-06T07:23:01;2.70;99.90
2825;DHT22;1420;51.324;12.344;2024-01-06T07:25:28;2.60;99.90
2825;DHT22;1420;51.324;12.344;2024-01-06T07:27:55;2.70;99.90
2825;DHT22;1420;51.324;12.344;2024-01-06T07:30:23;2.30;99.90
2825;DHT22;1420;51.324;12.344;2024-01-06T07:32:50;2.10;99.90
2825;DHT22;1420;51.324;12.344;2024-01-06T07:35:17;2.00;99.90
2825;DHT22;1420;51.324;12.344;2024-01-06T07:37:44;2.00;99.90
2825;DHT22;1420;51.324;12.344;2024-01-06T07:40:12;2.10;99.90
2825;DHT22;1420;51.324;12.344;2024-01-06T07:42:39;2.20;99.90
2825;DHT22;1420;51.324;12.344;2024-01-06T07:45:06;2.20;99.90
2825;DHT22;1420;51.324;12.344;2024-01-06T07:47:35;2.20;99.90
2825;DHT22;1420;51.324;12.344;2024-01-06T07:50:03;2.30;99.90
2825;DHT22;1420;51.324;12.344;2024-01-06T07:52:30;2.30;99.90
2825;DHT22;1420;51.324;12.344;2024-01-06T07:54:57;2.40;99.90
2825;DHT22;1420;51.324;12.344;2024-01-06T07:57:24;2.40;99.90
2825;DHT22;1420;51.324;12.344;2024-01-06T07:59:52;2.50;99.90
2825;DHT22;1420;51.324;12.344;2024-01-06T08:02:19;2.40;99.90
2825;DHT22;1420;51.324;12.344;2024-01-06T08:04:46;2.50;99.90
2825;DHT22;1420;51.324;12.344;2024-01-06T08:07:13;2.60;99.90
2825;DHT22;1420;51.324;12.344;2024-01-06T08:09:40;2.70;99.90
2825;DHT22;1420;51.324;12.344;2024-01-06T08:12:08;2.70;99.90
2825;DHT22;1420;51.324;12.344;2024-01-06T08:14:35;2.70;99.90
2825;DHT22;1420;51.324;12.344;2024-01-06T08:17:02;2.80;99.90
2825;DHT22;1420;51.324;12.344;2024-01-06T08:19:29;2.80;99.90
2825;DHT22;1420;51.324;12.344;2024-01-06T08:21:56;2.90;99.90
2825;DHT22;1420;51.324;12.344;2024-01-06T08:24:24;3.00;99.90
2825;DHT22;1420;51.324;12.344;2024-01-06T08:26:52;2.90;99.90
2825;DHT22;1420;51.324;12.344;2024-01-06T08:29:19;2.90;99.90
2825;DHT22;1420;51.324;12.344;2024-01-06T08:31:46;3.00;99.90
2825;DHT22;1420;51.324;12.344;2024-01-06T08:34:13;3.00;99.90
2825;DHT22;1420;51.324;12.344;2024-01-06T08:36:40;3.00;99.90
2825;DHT22;1420;51.324;12.344;2024-01-06T08:39:08;3.00;99.90
2825;DHT22;1420;51.324;12.344;2024-01-06T08:41:35;3.10;99.90
2825;DHT22;1420;51.324;12.344;2024-01-06T08:44:02;3.20;99.90
2825;DHT22;1420;51.324;12.344;2024-01-06T08:46:29;3.10;99.90
2825;DHT22;1420;51.324;12.344;2024-01-06T08:48:57;3.10;99.90
2825;DHT22;1420;51.324;12.344;2024-01-06T08:51:25;3.10;99.90
2825;DHT22;1420;51.324;12.344;2024-01-06T08:53:52;3.10;99.90
2825;DHT22;1420;51.324;12.344;2024-01-06T08:56:20;3.20;99.90
2825;DHT22;1420;51.324;12.344;2024-01-06T08:58:47;3.20;99.90
2825;DHT22;1420;51.324;12.344;2024-01-06T09:01:14;3.30;99.90
2825;DHT22;1420;51.324;12.344;2024-01-06T09:03:41;3.40;99.90
2825;DHT22;1420;51.324;12.344;2024-01-06T09:06:08;3.30;99.90
2825;DHT22;1420;51.324;12.344;2024-01-06T09:08:36;3.40;99.90
2825;DHT22;1420;51.324;12.344;2024-01-06T09:11:03;3.50;99.90
2825;DHT22;1420;51.324;12.344;2024-01-06T09:13:30;3.50;99.90
2825;DHT22;1420;51.324;12.344;2024-01-06T09:15:58;3.60;99.90
2825;DHT22;1420;51.324;12.344;2024-01-06T09:18:25;3.60;99.90
2825;DHT22;1420;51.324;12.344;2024-01-06T09:20:52;3.60;99.90
2825;DHT22;1420;51.324;12.344;2024-01-06T09:23:19;3.70;99.90
2825;DHT22;1420;51.324;12.344;2024-01-06T09:25:46;3.70;99.90
2825;DHT22;1420;51.324;12.344;2024-01-06T09:28:14;3.60;99.90
2825;DHT22;1420;51.324;12.344;2024-01-06T09:30:41;3.80;99.90
2825;DHT22;1420;51.324;12.344;2024-01-06T09:33:08;3.80;99.90
2825;DHT22;1420;51.324;12.344;2024-01-06T09:35:35;3.90;99.90
2825;DHT22;1420;51.324;12.344;2024-01-06T09:38:03;3.80;99.90
2825;DHT22;1420;51.324;12.344;2024-01-06T09:40:31;3.90;99.90
2825;DHT22;1420;51.324;12.344;2024-01-06T09:42:59;3.90;99.90
2825;DHT22;1420;51.324;12.344;2024-01-06T09:45:26;3.90;99.90
2825;DHT22;1420;51.324;12.344;2024-01-06T09:47:53;4.00;99.90
2825;DHT22;1420;51.324;12.344;2024-01-06T09:50:20;4.10;99.90
2825;DHT22;1420;51.324;12.344;2024-01-06T09:52:48;4.20;99.90
2825;DHT22;1420;51.324;12.344;2024-01-06T09:55:16;4.20;99.90
2825;DHT22;1420;51.324;12.344;2024-01-06T09:57:44;4.30;99.90
2825;DHT22;1420;51.324;12.344;2024-01-06T10:00:10;4.20;99.90
2825;DHT22;1420;51.324;12.344;2024-01-06T10:02:38;4.20;99.90
2825;DHT22;1420;51.324;12.344;2024-01-06T10:05:05;4.20;99.90
2825;DHT22;1420;51.324;12.344;2024-01-06T10:07:32;4.20;99.90
2825;DHT22;1420;51.324;12.344;2024-01-06T10:10:00;3.90;99.90
2825;DHT22;1420;51.324;12.344;2024-01-06T10:12:27;3.90;99.90
2825;DHT22;1420;51.324;12.344;2024-01-06T10:14:55;3.90;99.90
2825;DHT22;1420;51.324;12.344;2024-01-06T10:17:22;4.10;99.90
2825;DHT22;1420;51.324;12.344;2024-01-06T10:19:49;4.20;99.90
2825;DHT22;1420;51.324;12.344;2024-01-06T10:22:16;4.30;99.90
2825;DHT22;1420;51.324;12.344;2024-01-06T10:24:43;4.40;99.90
2825;DHT22;1420;51.324;12.344;2024-01-06T10:27:11;4.40;99.90
2825;DHT22;1420;51.324;12.344;2024-01-06T10:29:38;4.60;99.90
2825;DHT22;1420;51.324;12.344;2024-01-06T10:32:05;4.60;99.90
2825;DHT22;1420;51.324;12.344;2024-01-06T10:34:32;4.70;99.90
2825;DHT22;1420;51.324;12.344;2024-01-06T10:37:00;4.90;99.90
2825;DHT22;1420;51.324;12.344;2024-01-06T10:39:27;5.00;99.90
2825;DHT22;1420;51.324;12.344;2024-01-06T10:41:54;5.00;99.90
2825;DHT22;1420;51.324;12.344;2024-01-06T10:44:22;5.10;99.90
2825;DHT22;1420;51.324;12.344;2024-01-06T10:46:50;5.20;99.90
2825;DHT22;1420;51.324;12.344;2024-01-06T10:49:17;5.10;99.90
2825;DHT22;1420;51.324;12.344;2024-01-06T10:51:44;5.10;99.90
2825;DHT22;1420;51.324;12.344;2024-01-06T10:54:12;5.10;99.90
2825;DHT22;1420;51.324;12.344;2024-01-06T10:56:39;5.30;99.90
2825;DHT22;1420;51.324;12.344;2024-01-06T10:59:06;5.50;99.90
2825;DHT22;1420;51.324;12.344;2024-01-06T11:01:33;5.60;99.90
2825;DHT22;1420;51.324;12.344;2024-01-06T11:04:00;5.60;99.90
2825;DHT22;1420;51.324;12.344;2024-01-06T11:06:28;5.60;99.90
2825;DHT22;1420;51.324;12.344;2024-01-06T11:09:07;5.50;99.90
2825;DHT22;1420;51.324;12.344;2024-01-06T11:11:31;5.60;99.90
2825;DHT22;1420;51.324;12.344;2024-01-06T11:14:18;5.70;99.90
2825;DHT22;1420;51.324;12.344;2024-01-06T11:16:45;5.60;99.90
2825;DHT22;1420;51.324;12.344;2024-01-06T11:22:19;5.60;99.90
2825;DHT22;1420;51.324;12.344;2024-01-06T11:24:48;5.70;99.90
2825;DHT22;1420;51.324;12.344;2024-01-06T11:27:18;5.80;99.90
2825;DHT22;1420;51.324;12.344;2024-01-06T11:29:45;6.00;99.90
2825;DHT22;1420;51.324;12.344;2024-01-06T11:32:17;5.80;99.90
2825;DHT22;1420;51.324;12.344;2024-01-06T11:34:48;5.90;99.90
2825;DHT22;1420;51.324;12.344;2024-01-06T11:37:14;5.70;99.90
2825;DHT22;1420;51.324;12.344;2024-01-06T11:39:41;5.70;99.90
2825;DHT22;1420;51.324;12.344;2024-01-06T11:42:10;5.80;99.90
2825;DHT22;1420;51.324;12.344;2024-01-06T11:44:39;5.80;99.90
2825;DHT22;1420;51.324;12.344;2024-01-06T11:47:06;5.80;99.90
2825;DHT22;1420;51.324;12.344;2024-01-06T11:49:33;5.60;99.90
2825;DHT22;1420;51.324;12.344;2024-01-06T11:52:00;5.70;99.90
2825;DHT22;1420;51.324;12.344;2024-01-06T11:54:27;5.70;99.90
2825;DHT22;1420;51.324;12.344;2024-01-06T11:56:55;5.60;99.90
2825;DHT22;1420;51.324;12.344;2024-01-06T11:59:22;5.60;99.90
2825;DHT22;1420;51.324;12.344;2024-01-06T12:01:50;5.40;99.90
2825;DHT22;1420;51.324;12.344;2024-01-06T12:04:17;5.40;99.90
2825;DHT22;1420;51.324;12.344;2024-01-06T12:06:44;5.40;99.90
2825;DHT22;1420;51.324;12.344;2024-01-06T12:09:12;5.40;99.90
2825;DHT22;1420;51.324;12.344;2024-01-06T12:11:42;5.50;99.90
2825;DHT22;1420;51.324;12.344;2024-01-06T12:14:11;5.60;99.90
2825;DHT22;1420;51.324;12.344;2024-01-06T12:16:38;5.60;99.90
2825;DHT22;1420;51.324;12.344;2024-01-06T12:19:05;5.50;99.90
2825;DHT22;1420;51.324;12.344;2024-01-06T12:21:33;5.60;99.90
2825;DHT22;1420;51.324;12.344;2024-01-06T12:24:16;5.70;99.90
2825;DHT22;1420;51.324;12.344;2024-01-06T12:26:44;5.50;99.90
2825;DHT22;1420;51.324;12.344;2024-01-06T12:29:12;5.40;99.90
2825;DHT22;1420;51.324;12.344;2024-01-06T12:31:40;5.30;99.90
2825;DHT22;1420;51.324;12.344;2024-01-06T12:34:07;5.30;99.90
2825;DHT22;1420;51.324;12.344;2024-01-06T12:36:35;5.20;99.90
2825;DHT22;1420;51.324;12.344;2024-01-06T12:39:02;5.20;99.90
2825;DHT22;1420;51.324;12.344;2024-01-06T12:41:29;5.10;99.90
2825;DHT22;1420;51.324;12.344;2024-01-06T12:43:56;5.10;99.90
2825;DHT22;1420;51.324;12.344;2024-01-06T12:46:23;5.10;99.90
2825;DHT22;1420;51.324;12.344;2024-01-06T12:48:51;5.10;99.90
2825;DHT22;1420;51.324;12.344;2024-01-06T12:51:18;5.00;99.90
2825;DHT22;1420;51.324;12.344;2024-01-06T12:53:45;5.00;99.90
2825;DHT22;1420;51.324;12.344;2024-01-06T12:56:12;5.00;99.90
2825;DHT22;1420;51.324;12.344;2024-01-06T12:58:40;5.10;99.90
2825;DHT22;1420;51.324;12.344;2024-01-06T13:01:06;5.00;99.90
2825;DHT22;1420;51.324;12.344;2024-01-06T13:03:34;4.90;99.90
2825;DHT22;1420;51.324;12.344;2024-01-06T13:06:01;4.60;99.90
2825;DHT22;1420;51.324;12.344;2024-01-06T13:08:28;4.50;99.90
2825;DHT22;1420;51.324;12.344;2024-01-06T13:10:55;4.50;99.90
2825;DHT22;1420;51.324;12.344;2024-01-06T13:13:23;4.40;99.90
2825;DHT22;1420;51.324;12.344;2024-01-06T13:15:50;4.30;99.90
2825;DHT22;1420;51.324;12.344;2024-01-06T13:18:17;4.30;99.90
2825;DHT22;1420;51.324;12.344;2024-01-06T13:20:44;4.20;99.90
2825;DHT22;1420;51.324;12.344;2024-01-06T13:23:12;4.00;99.90
2825;DHT22;1420;51.324;12.344;2024-01-06T13:25:39;4.00;99.90
2825;DHT22;1420;51.324;12.344;2024-01-06T13:28:06;4.00;99.90
2825;DHT22;1420;51.324;12.344;2024-01-06T13:30:33;3.80;99.90
2825;DHT22;1420;51.324;12.344;2024-01-06T13:33:00;3.60;99.90
2825;DHT22;1420;51.324;12.344;2024-01-06T13:35:28;3.50;99.90
2825;DHT22;1420;51.324;12.344;2024-01-06T13:37:55;3.50;99.90
2825;DHT22;1420;51.324;12.344;2024-01-06T13:40:22;3.50;99.90
2825;DHT22;1420;51.324;12.344;2024-01-06T13:42:50;3.50;99.90
2825;DHT22;1420;51.324;12.344;2024-01-06T13:45:17;3.50;99.90
2825;DHT22;1420;51.324;12.344;2024-01-06T13:47:44;3.40;99.90
2825;DHT22;1420;51.324;12.344;2024-01-06T13:50:12;3.40;99.90
2825;DHT22;1420;51.324;12.344;2024-01-06T13:52:39;3.30;99.90
2825;DHT22;1420;51.324;12.344;2024-01-06T13:55:06;3.30;99.90
2825;DHT22;1420;51.324;12.344;2024-01-06T13:57:34;3.40;99.90
2825;DHT22;1420;51.324;12.344;2024-01-06T14:00:01;3.40;99.90
2825;DHT22;1420;51.324;12.344;2024-01-06T14:02:28;3.20;99.90
2825;DHT22;1420;51.324;12.344;2024-01-06T14:04:55;3.20;99.90
2825;DHT22;1420;51.324;12.344;2024-01-06T14:07:22;3.20;99.90
2825;DHT22;1420;51.324;12.344;2024-01-06T14:09:50;3.30;99.90
2825;DHT22;1420;51.324;12.344;2024-01-06T14:12:18;3.00;99.90
2825;DHT22;1420;51.324;12.344;2024-01-06T14:14:45;3.00;99.90
2825;DHT22;1420;51.324;12.344;2024-01-06T14:17:12;3.00;99.90
2825;DHT22;1420;51.324;12.344;2024-01-06T14:19:40;2.90;99.90
2825;DHT22;1420;51.324;12.344;2024-01-06T14:22:07;2.80;99.90
2825;DHT22;1420;51.324;12.344;2024-01-06T14:24:34;2.80;99.90
2825;DHT22;1420;51.324;12.344;2024-01-06T14:27:02;2.90;99.90
2825;DHT22;1420;51.324;12.344;2024-01-06T14:29:29;2.90;99.90
2825;DHT22;1420;51.324;12.344;2024-01-06T14:31:56;3.00;99.90
2825;DHT22;1420;51.324;12.344;2024-01-06T14:34:23;2.90;99.90
2825;DHT22;1420;51.324;12.344;2024-01-06T14:36:50;2.80;99.90
2825;DHT22;1420;51.324;12.344;2024-01-06T14:39:18;2.80;99.90
2825;DHT22;1420;51.324;12.344;2024-01-06T14:41:46;2.70;99.90
2825;DHT22;1420;51.324;12.344;2024-01-06T14:44:13;2.80;99.90
2825;DHT22;1420;51.324;12.344;2024-01-06T14:46:40;2.70;99.90
2825;DHT22;1420;51.324;12.344;2024-01-06T14:49:07;2.60;99.90
2825;DHT22;1420;51.324;12.344;2024-01-06T14:51:35;2.50;99.90
2825;DHT22;1420;51.324;12.344;2024-01-06T14:54:03;2.50;99.90
2825;DHT22;1420;51.324;12.344;2024-01-06T14:56:30;2.60;99.90
2825;DHT22;1420;51.324;12.344;2024-01-06T14:58:57;2.60;99.90
2825;DHT22;1420;51.324;12.344;2024-01-06T15:01:24;2.50;99.90
2825;DHT22;1420;51.324;12.344;2024-01-06T15:03:51;2.60;99.90
2825;DHT22;1420;51.324;12.344;2024-01-06T15:06:18;2.70;99.90
2825;DHT22;1420;51.324;12.344;2024-01-06T15:08:46;2.70;99.90
2825;DHT22;1420;51.324;12.344;2024-01-06T15:11:14;2.70;99.90
2825;DHT22;1420;51.324;12.344;2024-01-06T15:13:41;2.60;99.90
2825;DHT22;1420;51.324;12.344;2024-01-06T15:16:08;2.70;99.90
2825;DHT22;1420;51.324;12.344;2024-01-06T15:18:35;2.70;99.90
2825;DHT22;1420;51.324;12.344;2024-01-06T15:21:02;2.70;99.90
2825;DHT22;1420;51.324;12.344;2024-01-06T15:23:30;2.40;99.90
2825;DHT22;1420;51.324;12.344;2024-01-06T15:25:58;2.40;99.90
2825;DHT22;1420;51.324;12.344;2024-01-06T15:28:26;2.30;99.90
2825;DHT22;1420;51.324;12.344;2024-01-06T15:30:53;2.40;99.90
2825;DHT22;1420;51.324;12.344;2024-01-06T15:33:20;2.30;99.90
2825;DHT22;1420;51.324;12.344;2024-01-06T15:35:47;2.40;99.90
2825;DHT22;1420;51.324;12.344;2024-01-06T15:38:14;2.40;99.90
2825;DHT22;1420;51.324;12.344;2024-01-06T15:40:42;2.40;99.90
2825;DHT22;1420;51.324;12.344;2024-01-06T15:43:09;2.40;99.90
2825;DHT22;1420;51.324;12.344;2024-01-06T15:45:36;2.40;99.90
2825;DHT22;1420;51.324;12.344;2024-01-06T15:48:03;2.40;99.90
2825;DHT22;1420;51.324;12.344;2024-01-06T15:50:31;2.20;99.90
2825;DHT22;1420;51.324;12.344;2024-01-06T15:52:59;2.20;99.90
2825;DHT22;1420;51.324;12.344;2024-01-06T15:55:27;2.10;99.90
2825;DHT22;1420;51.324;12.344;2024-01-06T15:57:55;2.10;99.90
2825;DHT22;1420;51.324;12.344;2024-01-06T16:00:22;2.00;99.90
2825;DHT22;1420;51.324;12.344;2024-01-06T16:02:49;2.00;99.90
2825;DHT22;1420;51.324;12.344;2024-01-06T16:05:16;2.10;99.90